sensor_id;sensor_type;location;lat;lon;timestamp;temperature;humidity
78212;SHT31;67490;52.086;5.122;2023-06-14T00:00:56;24.16;39.80
78212;SHT31;67490;52.086;5.122;2023-06-14T00:03:41;24.19;39.59
78212;SHT31;67490;52.086;5.122;2023-06-14T00:06:26;24.00;39.18
78212;SHT31;67490;52.086;5.122;2023-06-14T00:09:10;23.91;39.62
78212;SHT31;67490;52.086;5.122;2023-06-14T00:11:55;24.01;39.68
78212;SHT31;67490;52.086;5.122;2023-06-14T00:14:39;24.05;39.28
78212;SHT31;67490;52.086;5.122;2023-06-14T00:17:24;24.08;38.64
78212;SHT31;67490;52.086;5.122;2023-06-14T00:20:11;24.04;38.60
78212;SHT31;67490;52.086;5.122;2023-06-14T00:22:55;24.06;38.93
78212;SHT31;67490;52.086;5.122;2023-06-14T00:25:40;24.05;38.71
78212;SHT31;67490;52.086;5.122;2023-06-14T00:28:24;24.02;38.79
78212;SHT31;67490;52.086;5.122;2023-06-14T00:31:08;24.00;38.51
78212;SHT31;67490;52.086;5.122;2023-06-14T00:33:53;23.95;38.30
78212;SHT31;67490;52.086;5.122;2023-06-14T00:36:38;23.92;38.45
78212;SHT31;67490;52.086;5.122;2023-06-14T00:39:23;23.88;38.48
78212;SHT31;67490;52.086;5.122;2023-06-14T00:42:07;23.85;38.78
78212;SHT31;67490;52.086;5.122;2023-06-14T00:44:52;23.92;38.49
78212;SHT31;67490;52.086;5.122;2023-06-14T00:47:38;23.97;38.55
78212;SHT31;67490;52.086;5.122;2023-06-14T00:50:25;23.94;38.49
78212;SHT31;67490;52.086;5.122;2023-06-14T00:53:12;24.01;38.46
78212;SHT31;67490;52.086;5.122;2023-06-14T00:55:56;23.92;38.27
78212;SHT31;67490;52.086;5.122;2023-06-14T00:58:41;23.92;38.41
78212;SHT31;67490;52.086;5.122;2023-06-14T01:01:27;23.92;38.26
78212;SHT31;67490;52.086;5.122;2023-06-14T01:04:13;23.95;38.41
78212;SHT31;67490;52.086;5.122;2023-06-14T01:07:04;24.02;38.17
78212;SHT31;67490;52.086;5.122;2023-06-14T01:10:09;24.08;38.12
78212;SHT31;67490;52.086;5.122;2023-06-14T01:13:02;24.08;38.08
78212;SHT31;67490;52.086;5.122;2023-06-14T01:15:47;24.18;37.99
78212;SHT31;67490;52.086;5.122;2023-06-14T01:18:32;24.18;37.80
78212;SHT31;67490;52.086;5.122;2023-06-14T01:21:23;24.13;37.82
78212;SHT31;67490;52.086;5.122;2023-06-14T01:24:09;24.01;38.06
78212;SHT31;67490;52.086;5.122;2023-06-14T01:26:55;23.89;38.13
78212;SHT31;67490;52.086;5.122;2023-06-14T01:29:40;23.85;38.46
78212;SHT31;67490;52.086;5.122;2023-06-14T01:32:30;23.92;38.20
78212;SHT31;67490;52.086;5.122;2023-06-14T01:35:14;23.88;38.22
78212;SHT31;67490;52.086;5.122;2023-06-14T01:38:00;23.92;38.26
78212;SHT31;67490;52.086;5.122;2023-06-14T01:40:48;23.89;38.25
78212;SHT31;67490;52.086;5.122;2023-06-14T01:43:34;23.81;38.26
78212;SHT31;67490;52.086;5.122;2023-06-14T01:46:20;23.74;38.27
78212;SHT31;67490;52.086;5.122;2023-06-14T01:49:04;23.67;38.53
78212;SHT31;67490;52.086;5.122;2023-06-14T01:51:48;23.70;38.47
78212;SHT31;67490;52.086;5.122;2023-06-14T01:54:33;23.70;38.31
78212;SHT31;67490;52.086;5.122;2023-06-14T01:57:19;23.68;38.26
78212;SHT31;67490;52.086;5.122;2023-06-14T02:00:05;23.68;38.45
78212;SHT31;67490;52.086;5.122;2023-06-14T02:02:56;23.68;38.52
78212;SHT31;67490;52.086;5.122;2023-06-14T02:05:41;23.70;38.42
78212;SHT31;67490;52.086;5.122;2023-06-14T02:08:25;23.64;38.27
78212;SHT31;67490;52.086;5.122;2023-06-14T02:11:10;23.65;38.54
78212;SHT31;67490;52.086;5.122;2023-06-14T02:13:56;23.63;38.26
78212;SHT31;67490;52.086;5.122;2023-06-14T02:16:40;23.65;38.41
78212;SHT31;67490;52.086;5.122;2023-06-14T02:19:32;23.61;38.54
78212;SHT31;67490;52.086;5.122;2023-06-14T02:22:17;23.61;38.34
78212;SHT31;67490;52.086;5.122;2023-06-14T02:25:02;23.60;38.59
78212;SHT31;67490;52.086;5.122;2023-06-14T02:27:47;23.60;38.59
78212;SHT31;67490;52.086;5.122;2023-06-14T02:30:33;23.67;38.41
78212;SHT31;67490;52.086;5.122;2023-06-14T02:33:17;23.67;38.39
78212;SHT31;67490;52.086;5.122;2023-06-14T02:36:02;23.64;38.54
78212;SHT31;67490;52.086;5.122;2023-06-14T02:38:47;23.58;38.61
78212;SHT31;67490;52.086;5.122;2023-06-14T02:41:31;23.51;38.51
78212;SHT31;67490;52.086;5.122;2023-06-14T02:44:18;23.44;38.70
78212;SHT31;67490;52.086;5.122;2023-06-14T02:47:05;23.34;38.33
78212;SHT31;67490;52.086;5.122;2023-06-14T02:49:49;23.22;39.07
78212;SHT31;67490;52.086;5.122;2023-06-14T02:52:34;23.17;38.78
78212;SHT31;67490;52.086;5.122;2023-06-14T02:55:18;23.12;39.35
78212;SHT31;67490;52.086;5.122;2023-06-14T02:58:03;23.14;39.38
78212;SHT31;67490;52.086;5.122;2023-06-14T03:00:47;23.16;39.27
78212;SHT31;67490;52.086;5.122;2023-06-14T03:03:33;23.16;39.21
78212;SHT31;67490;52.086;5.122;2023-06-14T03:06:18;23.09;39.31
78212;SHT31;67490;52.086;5.122;2023-06-14T03:09:03;22.95;39.48
78212;SHT31;67490;52.086;5.122;2023-06-14T03:11:51;22.91;39.80
78212;SHT31;67490;52.086;5.122;2023-06-14T03:14:35;22.92;39.65
78212;SHT31;67490;52.086;5.122;2023-06-14T03:17:20;22.89;39.76
78212;SHT31;67490;52.086;5.122;2023-06-14T03:20:07;22.77;39.86
78212;SHT31;67490;52.086;5.122;2023-06-14T03:22:52;22.72;40.03
78212;SHT31;67490;52.086;5.122;2023-06-14T03:25:38;22.79;39.95
78212;SHT31;67490;52.086;5.122;2023-06-14T03:28:24;22.76;39.98
78212;SHT31;67490;52.086;5.122;2023-06-14T03:31:09;22.69;39.59
78212;SHT31;67490;52.086;5.122;2023-06-14T03:33:54;22.51;40.08
78212;SHT31;67490;52.086;5.122;2023-06-14T03:36:40;22.51;40.54
78212;SHT31;67490;52.086;5.122;2023-06-14T03:39:24;22.44;40.64
78212;SHT31;67490;52.086;5.122;2023-06-14T03:42:09;22.47;40.71
78212;SHT31;67490;52.086;5.122;2023-06-14T03:44:54;22.48;40.62
78212;SHT31;67490;52.086;5.122;2023-06-14T03:47:39;22.48;40.66
78212;SHT31;67490;52.086;5.122;2023-06-14T03:50:24;22.41;40.87
78212;SHT31;67490;52.086;5.122;2023-06-14T03:53:10;22.43;40.67
78212;SHT31;67490;52.086;5.122;2023-06-14T03:55:54;22.40;40.61
78212;SHT31;67490;52.086;5.122;2023-06-14T03:58:39;22.34;40.40
78212;SHT31;67490;52.086;5.122;2023-06-14T04:01:24;22.30;40.79
78212;SHT31;67490;52.086;5.122;2023-06-14T04:04:11;22.25;40.89
78212;SHT31;67490;52.086;5.122;2023-06-14T04:06:55;22.25;40.97
78212;SHT31;67490;52.086;5.122;2023-06-14T04:09:43;22.16;41.36
78212;SHT31;67490;52.086;5.122;2023-06-14T04:12:28;21.96;41.47
78212;SHT31;67490;52.086;5.122;2023-06-14T04:15:13;21.97;42.05
78212;SHT31;67490;52.086;5.122;2023-06-14T04:17:57;22.11;41.87
78212;SHT31;67490;52.086;5.122;2023-06-14T04:20:42;22.14;41.89
78212;SHT31;67490;52.086;5.122;2023-06-14T04:23:28;22.25;41.69
78212;SHT31;67490;52.086;5.122;2023-06-14T04:26:14;22.17;41.47
78212;SHT31;67490;52.086;5.122;2023-06-14T04:29:00;21.94;41.74
78212;SHT31;67490;52.086;5.122;2023-06-14T04:31:47;21.90;42.50
78212;SHT31;67490;52.086;5.122;2023-06-14T04:34:33;21.63;42.84
78212;SHT31;67490;52.086;5.122;2023-06-14T04:37:17;21.76;42.65
78212;SHT31;67490;52.086;5.122;2023-06-14T04:40:04;21.92;42.71
78212;SHT31;67490;52.086;5.122;2023-06-14T04:42:52;21.72;42.71
78212;SHT31;67490;52.086;5.122;2023-06-14T04:45:37;21.67;43.06
78212;SHT31;67490;52.086;5.122;2023-06-14T04:48:21;21.80;42.97
78212;SHT31;67490;52.086;5.122;2023-06-14T04:51:06;21.97;42.42
78212;SHT31;67490;52.086;5.122;2023-06-14T04:53:50;22.11;42.23
78212;SHT31;67490;52.086;5.122;2023-06-14T04:56:35;22.13;42.69
78212;SHT31;67490;52.086;5.122;2023-06-14T04:59:22;22.28;41.93
78212;SHT31;67490;52.086;5.122;2023-06-14T05:02:09;22.37;42.29
78212;SHT31;67490;52.086;5.122;2023-06-14T05:04:54;22.45;42.09
78212;SHT31;67490;52.086;5.122;2023-06-14T05:07:41;22.54;41.75
78212;SHT31;67490;52.086;5.122;2023-06-14T05:10:25;22.58;41.73
78212;SHT31;67490;52.086;5.122;2023-06-14T05:13:09;22.71;41.42
78212;SHT31;67490;52.086;5.122;2023-06-14T05:15:56;22.68;41.43
78212;SHT31;67490;52.086;5.122;2023-06-14T05:18:41;22.64;41.61
78212;SHT31;67490;52.086;5.122;2023-06-14T05:21:25;22.66;41.38
78212;SHT31;67490;52.086;5.122;2023-06-14T05:24:10;22.68;41.93
78212;SHT31;67490;52.086;5.122;2023-06-14T05:26:55;22.82;41.74
78212;SHT31;67490;52.086;5.122;2023-06-14T05:29:40;22.81;41.63
78212;SHT31;67490;52.086;5.122;2023-06-14T05:32:25;22.79;41.93
78212;SHT31;67490;52.086;5.122;2023-06-14T05:35:10;22.71;41.67
78212;SHT31;67490;52.086;5.122;2023-06-14T05:37:55;22.44;41.87
78212;SHT31;67490;52.086;5.122;2023-06-14T05:40:39;22.44;42.39
78212;SHT31;67490;52.086;5.122;2023-06-14T05:43:24;22.52;42.18
78212;SHT31;67490;52.086;5.122;2023-06-14T05:46:08;22.58;41.96
78212;SHT31;67490;52.086;5.122;2023-06-14T05:48:55;22.79;42.09
78212;SHT31;67490;52.086;5.122;2023-06-14T05:51:39;22.93;41.25
78212;SHT31;67490;52.086;5.122;2023-06-14T05:54:24;23.03;41.51
78212;SHT31;67490;52.086;5.122;2023-06-14T05:57:08;23.03;41.11
78212;SHT31;67490;52.086;5.122;2023-06-14T06:00:00;23.12;41.09
78212;SHT31;67490;52.086;5.122;2023-06-14T06:02:45;23.23;40.63
78212;SHT31;67490;52.086;5.122;2023-06-14T06:05:31;23.37;40.49
78212;SHT31;67490;52.086;5.122;2023-06-14T06:08:15;23.49;39.86
78212;SHT31;67490;52.086;5.122;2023-06-14T06:11:01;23.43;39.57
78212;SHT31;67490;52.086;5.122;2023-06-14T06:13:45;23.40;39.86
78212;SHT31;67490;52.086;5.122;2023-06-14T06:16:30;23.74;39.72
78212;SHT31;67490;52.086;5.122;2023-06-14T06:19:14;24.26;38.25
78212;SHT31;67490;52.086;5.122;2023-06-14T06:22:01;24.53;37.83
78212;SHT31;67490;52.086;5.122;2023-06-14T06:24:46;24.88;37.10
78212;SHT31;67490;52.086;5.122;2023-06-14T06:27:30;25.39;36.38
78212;SHT31;67490;52.086;5.122;2023-06-14T06:30:15;26.01;35.28
78212;SHT31;67490;52.086;5.122;2023-06-14T06:33:00;26.84;34.43
78212;SHT31;67490;52.086;5.122;2023-06-14T06:35:46;27.57;33.72
78212;SHT31;67490;52.086;5.122;2023-06-14T06:38:31;28.22;32.62
78212;SHT31;67490;52.086;5.122;2023-06-14T06:41:16;28.24;32.41
78212;SHT31;67490;52.086;5.122;2023-06-14T06:44:01;28.34;32.18
78212;SHT31;67490;52.086;5.122;2023-06-14T06:46:45;28.79;31.54
78212;SHT31;67490;52.086;5.122;2023-06-14T06:49:29;29.50;30.82
78212;SHT31;67490;52.086;5.122;2023-06-14T06:52:14;30.17;29.96
78212;SHT31;67490;52.086;5.122;2023-06-14T06:55:00;30.53;29.25
78212;SHT31;67490;52.086;5.122;2023-06-14T06:57:44;31.14;28.87
78212;SHT31;67490;52.086;5.122;2023-06-14T07:00:29;30.96;28.49
78212;SHT31;67490;52.086;5.122;2023-06-14T07:03:13;30.84;28.69
78212;SHT31;67490;52.086;5.122;2023-06-14T07:05:58;30.94;28.39
78212;SHT31;67490;52.086;5.122;2023-06-14T07:08:42;30.65;28.77
78212;SHT31;67490;52.086;5.122;2023-06-14T07:11:29;30.17;28.98
78212;SHT31;67490;52.086;5.122;2023-06-14T07:14:13;30.19;29.18
78212;SHT31;67490;52.086;5.122;2023-06-14T07:16:58;30.45;29.14
78212;SHT31;67490;52.086;5.122;2023-06-14T07:19:42;30.72;28.39
78212;SHT31;67490;52.086;5.122;2023-06-14T07:22:28;30.54;29.24
78212;SHT31;67490;52.086;5.122;2023-06-14T07:25:13;30.48;29.50
78212;SHT31;67490;52.086;5.122;2023-06-14T07:27:59;30.89;29.06
78212;SHT31;67490;52.086;5.122;2023-06-14T07:30:44;31.45;28.66
78212;SHT31;67490;52.086;5.122;2023-06-14T07:33:28;31.72;27.49
78212;SHT31;67490;52.086;5.122;2023-06-14T07:36:13;31.94;27.68
78212;SHT31;67490;52.086;5.122;2023-06-14T07:38:58;32.24;27.59
78212;SHT31;67490;52.086;5.122;2023-06-14T07:41:42;32.38;26.61
78212;SHT31;67490;52.086;5.122;2023-06-14T07:44:29;32.41;26.36
78212;SHT31;67490;52.086;5.122;2023-06-14T07:47:15;32.38;27.47
78212;SHT31;67490;52.086;5.122;2023-06-14T07:49:59;32.39;27.18
78212;SHT31;67490;52.086;5.122;2023-06-14T07:52:45;32.71;26.38
78212;SHT31;67490;52.086;5.122;2023-06-14T07:55:29;32.61;26.39
78212;SHT31;67490;52.086;5.122;2023-06-14T07:58:15;32.48;26.34
78212;SHT31;67490;52.086;5.122;2023-06-14T08:01:01;32.23;26.41
78212;SHT31;67490;52.086;5.122;2023-06-14T08:03:50;32.03;26.34
78212;SHT31;67490;52.086;5.122;2023-06-14T08:06:34;32.34;25.94
78212;SHT31;67490;52.086;5.122;2023-06-14T08:09:19;32.68;25.27
78212;SHT31;67490;52.086;5.122;2023-06-14T08:12:04;32.64;25.19
78212;SHT31;67490;52.086;5.122;2023-06-14T08:14:52;32.75;24.79
78212;SHT31;67490;52.086;5.122;2023-06-14T08:17:39;32.74;25.70
78212;SHT31;67490;52.086;5.122;2023-06-14T08:20:28;32.45;25.24
78212;SHT31;67490;52.086;5.122;2023-06-14T08:23:14;32.34;25.97
78212;SHT31;67490;52.086;5.122;2023-06-14T08:26:00;32.45;25.27
78212;SHT31;67490;52.086;5.122;2023-06-14T08:28:45;32.36;25.63
78212;SHT31;67490;52.086;5.122;2023-06-14T08:31:30;32.56;25.20
78212;SHT31;67490;52.086;5.122;2023-06-14T08:34:17;32.23;25.70
78212;SHT31;67490;52.086;5.122;2023-06-14T08:37:02;31.78;25.90
78212;SHT31;67490;52.086;5.122;2023-06-14T08:39:46;32.01;25.48
78212;SHT31;67490;52.086;5.122;2023-06-14T08:42:32;32.31;25.27
78212;SHT31;67490;52.086;5.122;2023-06-14T08:45:17;32.58;26.28
78212;SHT31;67490;52.086;5.122;2023-06-14T08:48:02;32.49;25.50
78212;SHT31;67490;52.086;5.122;2023-06-14T08:50:49;32.95;25.16
78212;SHT31;67490;52.086;5.122;2023-06-14T08:53:36;33.24;24.60
78212;SHT31;67490;52.086;5.122;2023-06-14T08:56:27;33.37;24.27
78212;SHT31;67490;52.086;5.122;2023-06-14T08:59:15;33.20;24.51
78212;SHT31;67490;52.086;5.122;2023-06-14T09:02:00;33.37;24.12
78212;SHT31;67490;52.086;5.122;2023-06-14T09:04:45;33.71;24.17
78212;SHT31;67490;52.086;5.122;2023-06-14T09:07:31;34.36;23.48
78212;SHT31;67490;52.086;5.122;2023-06-14T09:10:16;34.59;23.48
78212;SHT31;67490;52.086;5.122;2023-06-14T09:13:01;34.52;22.54
78212;SHT31;67490;52.086;5.122;2023-06-14T09:15:45;34.71;23.06
78212;SHT31;67490;52.086;5.122;2023-06-14T09:18:35;34.45;22.16
78212;SHT31;67490;52.086;5.122;2023-06-14T09:21:19;34.36;22.45
78212;SHT31;67490;52.086;5.122;2023-06-14T09:24:06;34.09;21.70
78212;SHT31;67490;52.086;5.122;2023-06-14T09:26:57;33.71;22.55
78212;SHT31;67490;52.086;5.122;2023-06-14T09:29:42;33.92;23.08
78212;SHT31;67490;52.086;5.122;2023-06-14T09:32:27;33.87;22.72
78212;SHT31;67490;52.086;5.122;2023-06-14T09:35:12;33.74;23.05
78212;SHT31;67490;52.086;5.122;2023-06-14T09:37:56;33.64;23.49
78212;SHT31;67490;52.086;5.122;2023-06-14T09:40:42;33.51;23.58
78212;SHT31;67490;52.086;5.122;2023-06-14T09:43:27;33.35;24.24
78212;SHT31;67490;52.086;5.122;2023-06-14T09:46:13;33.43;24.04
78212;SHT31;67490;52.086;5.122;2023-06-14T09:48:58;33.17;23.48
78212;SHT31;67490;52.086;5.122;2023-06-14T09:51:45;32.83;22.99
78212;SHT31;67490;52.086;5.122;2023-06-14T09:54:33;32.86;23.42
78212;SHT31;67490;52.086;5.122;2023-06-14T09:57:22;32.36;22.62
78212;SHT31;67490;52.086;5.122;2023-06-14T10:00:09;32.65;23.17
78212;SHT31;67490;52.086;5.122;2023-06-14T10:03:03;32.56;22.71
78212;SHT31;67490;52.086;5.122;2023-06-14T10:05:50;32.69;23.62
78212;SHT31;67490;52.086;5.122;2023-06-14T10:08:36;32.85;23.08
78212;SHT31;67490;52.086;5.122;2023-06-14T10:11:21;32.89;23.85
78212;SHT31;67490;52.086;5.122;2023-06-14T10:14:08;33.23;23.14
78212;SHT31;67490;52.086;5.122;2023-06-14T10:17:05;33.94;22.59
78212;SHT31;67490;52.086;5.122;2023-06-14T10:19:58;33.90;22.18
78212;SHT31;67490;52.086;5.122;2023-06-14T10:22:50;33.97;23.11
78212;SHT31;67490;52.086;5.122;2023-06-14T10:25:35;34.33;21.83
78212;SHT31;67490;52.086;5.122;2023-06-14T10:28:21;33.78;22.15
78212;SHT31;67490;52.086;5.122;2023-06-14T10:31:16;33.87;21.49
78212;SHT31;67490;52.086;5.122;2023-06-14T10:34:00;34.11;21.69
78212;SHT31;67490;52.086;5.122;2023-06-14T10:36:45;34.21;21.44
78212;SHT31;67490;52.086;5.122;2023-06-14T10:39:30;33.90;21.11
78212;SHT31;67490;52.086;5.122;2023-06-14T10:42:15;33.54;21.61
78212;SHT31;67490;52.086;5.122;2023-06-14T10:45:00;33.34;22.43
78212;SHT31;67490;52.086;5.122;2023-06-14T10:47:49;33.51;22.84
78212;SHT31;67490;52.086;5.122;2023-06-14T10:50:42;33.80;22.05
78212;SHT31;67490;52.086;5.122;2023-06-14T10:53:28;33.63;22.88
78212;SHT31;67490;52.086;5.122;2023-06-14T10:56:23;33.22;20.91
78212;SHT31;67490;52.086;5.122;2023-06-14T10:59:10;33.35;21.86
78212;SHT31;67490;52.086;5.122;2023-06-14T11:05:04;31.81;23.33
78212;SHT31;67490;52.086;5.122;2023-06-14T11:08:07;31.57;24.07
78212;SHT31;67490;52.086;5.122;2023-06-14T11:10:59;31.53;24.17
78212;SHT31;67490;52.086;5.122;2023-06-14T11:13:45;31.50;23.44
78212;SHT31;67490;52.086;5.122;2023-06-14T11:16:30;31.45;24.41
78212;SHT31;67490;52.086;5.122;2023-06-14T11:19:17;31.28;24.88
78212;SHT31;67490;52.086;5.122;2023-06-14T11:22:03;31.08;24.59
78212;SHT31;67490;52.086;5.122;2023-06-14T11:24:47;31.14;24.86
78212;SHT31;67490;52.086;5.122;2023-06-14T11:27:33;31.16;26.19
78212;SHT31;67490;52.086;5.122;2023-06-14T11:30:17;31.15;25.21
78212;SHT31;67490;52.086;5.122;2023-06-14T11:33:02;30.12;24.48
78212;SHT31;67490;52.086;5.122;2023-06-14T11:35:47;29.71;25.93
78212;SHT31;67490;52.086;5.122;2023-06-14T11:38:36;29.99;25.27
78212;SHT31;67490;52.086;5.122;2023-06-14T11:41:25;29.51;26.56
78212;SHT31;67490;52.086;5.122;2023-06-14T11:44:10;29.51;27.92
78212;SHT31;67490;52.086;5.122;2023-06-14T11:46:55;29.47;26.68
78212;SHT31;67490;52.086;5.122;2023-06-14T11:49:40;29.35;26.08
78212;SHT31;67490;52.086;5.122;2023-06-14T11:52:25;29.73;26.47
78212;SHT31;67490;52.086;5.122;2023-06-14T11:55:11;29.78;25.86
78212;SHT31;67490;52.086;5.122;2023-06-14T11:57:56;29.98;26.67
78212;SHT31;67490;52.086;5.122;2023-06-14T12:00:40;29.90;26.30
78212;SHT31;67490;52.086;5.122;2023-06-14T12:03:26;30.00;26.20
78212;SHT31;67490;52.086;5.122;2023-06-14T12:06:12;29.50;25.92
78212;SHT31;67490;52.086;5.122;2023-06-14T12:08:57;29.59;26.20
78212;SHT31;67490;52.086;5.122;2023-06-14T12:11:43;29.65;27.68
78212;SHT31;67490;52.086;5.122;2023-06-14T12:14:28;29.78;27.23
78212;SHT31;67490;52.086;5.122;2023-06-14T12:17:12;29.81;25.86
78212;SHT31;67490;52.086;5.122;2023-06-14T12:19:57;29.81;26.43
78212;SHT31;67490;52.086;5.122;2023-06-14T12:22:50;29.96;26.39
78212;SHT31;67490;52.086;5.122;2023-06-14T12:25:36;30.12;26.19
78212;SHT31;67490;52.086;5.122;2023-06-14T12:28:22;30.27;26.39
78212;SHT31;67490;52.086;5.122;2023-06-14T12:31:06;30.37;26.45
78212;SHT31;67490;52.086;5.122;2023-06-14T12:33:51;30.14;25.13
78212;SHT31;67490;52.086;5.122;2023-06-14T12:36:35;30.00;26.43
78212;SHT31;67490;52.086;5.122;2023-06-14T12:39:25;29.93;26.42
78212;SHT31;67490;52.086;5.122;2023-06-14T12:42:10;29.83;26.09
78212;SHT31;67490;52.086;5.122;2023-06-14T12:44:56;29.81;26.20
78212;SHT31;67490;52.086;5.122;2023-06-14T12:47:40;29.88;25.91
78212;SHT31;67490;52.086;5.122;2023-06-14T12:50:25;29.79;25.32
78212;SHT31;67490;52.086;5.122;2023-06-14T12:53:09;29.86;26.85
78212;SHT31;67490;52.086;5.122;2023-06-14T12:55:54;29.88;26.10
78212;SHT31;67490;52.086;5.122;2023-06-14T12:58:39;29.85;27.16
78212;SHT31;67490;52.086;5.122;2023-06-14T13:01:25;29.90;26.31
78212;SHT31;67490;52.086;5.122;2023-06-14T13:04:10;30.14;27.07
78212;SHT31;67490;52.086;5.122;2023-06-14T13:06:54;30.23;26.39
78212;SHT31;67490;52.086;5.122;2023-06-14T13:09:39;30.12;26.74
78212;SHT31;67490;52.086;5.122;2023-06-14T13:12:23;29.98;26.55
78212;SHT31;67490;52.086;5.122;2023-06-14T13:15:08;29.88;26.90
78212;SHT31;67490;52.086;5.122;2023-06-14T13:17:54;29.76;27.05
78212;SHT31;67490;52.086;5.122;2023-06-14T13:20:39;29.93;26.96
78212;SHT31;67490;52.086;5.122;2023-06-14T13:23:24;30.08;26.11
78212;SHT31;67490;52.086;5.122;2023-06-14T13:26:08;30.19;26.95
78212;SHT31;67490;52.086;5.122;2023-06-14T13:28:52;30.14;27.19
78212;SHT31;67490;52.086;5.122;2023-06-14T13:31:37;30.10;27.06
78212;SHT31;67490;52.086;5.122;2023-06-14T13:34:23;29.82;27.26
78212;SHT31;67490;52.086;5.122;2023-06-14T13:37:07;29.92;26.99
78212;SHT31;67490;52.086;5.122;2023-06-14T13:39:52;29.98;26.84
78212;SHT31;67490;52.086;5.122;2023-06-14T13:42:37;29.96;26.89
78212;SHT31;67490;52.086;5.122;2023-06-14T13:45:21;29.89;26.56
78212;SHT31;67490;52.086;5.122;2023-06-14T13:48:06;29.88;25.42
78212;SHT31;67490;52.086;5.122;2023-06-14T13:50:52;29.98;25.09
78212;SHT31;67490;52.086;5.122;2023-06-14T13:53:36;29.62;25.43
78212;SHT31;67490;52.086;5.122;2023-06-14T13:56:21;29.27;25.82
78212;SHT31;67490;52.086;5.122;2023-06-14T13:59:08;29.55;25.03
78212;SHT31;67490;52.086;5.122;2023-06-14T14:01:53;29.68;24.82
78212;SHT31;67490;52.086;5.122;2023-06-14T14:04:39;29.68;24.78
78212;SHT31;67490;52.086;5.122;2023-06-14T14:07:25;29.63;26.14
78212;SHT31;67490;52.086;5.122;2023-06-14T14:10:10;29.65;27.10
78212;SHT31;67490;52.086;5.122;2023-06-14T14:12:57;29.62;26.25
78212;SHT31;67490;52.086;5.122;2023-06-14T14:15:41;29.66;26.68
78212;SHT31;67490;52.086;5.122;2023-06-14T14:18:26;29.76;26.15
78212;SHT31;67490;52.086;5.122;2023-06-14T14:21:11;29.75;26.06
78212;SHT31;67490;52.086;5.122;2023-06-14T14:23:56;29.78;26.10
78212;SHT31;67490;52.086;5.122;2023-06-14T14:26:41;29.83;27.08
78212;SHT31;67490;52.086;5.122;2023-06-14T14:29:25;29.73;26.32
78212;SHT31;67490;52.086;5.122;2023-06-14T14:32:13;29.04;26.08
78212;SHT31;67490;52.086;5.122;2023-06-14T14:34:58;29.32;26.90
78212;SHT31;67490;52.086;5.122;2023-06-14T14:37:43;29.32;27.14
78212;SHT31;67490;52.086;5.122;2023-06-14T14:40:29;29.30;27.47
78212;SHT31;67490;52.086;5.122;2023-06-14T14:43:13;29.27;27.59
78212;SHT31;67490;52.086;5.122;2023-06-14T14:45:58;29.25;27.76
78212;SHT31;67490;52.086;5.122;2023-06-14T14:48:42;29.14;28.04
78212;SHT31;67490;52.086;5.122;2023-06-14T14:51:26;29.03;27.51
78212;SHT31;67490;52.086;5.122;2023-06-14T14:54:11;29.15;27.87
78212;SHT31;67490;52.086;5.122;2023-06-14T14:56:57;29.30;27.90
78212;SHT31;67490;52.086;5.122;2023-06-14T14:59:41;29.38;27.31
78212;SHT31;67490;52.086;5.122;2023-06-14T15:02:25;29.42;27.28
78212;SHT31;67490;52.086;5.122;2023-06-14T15:05:10;29.24;26.96
78212;SHT31;67490;52.086;5.122;2023-06-14T15:07:55;29.25;27.47
78212;SHT31;67490;52.086;5.122;2023-06-14T15:10:39;29.31;26.84
78212;SHT31;67490;52.086;5.122;2023-06-14T15:13:28;29.51;26.51
78212;SHT31;67490;52.086;5.122;2023-06-14T15:16:13;29.48;26.41
78212;SHT31;67490;52.086;5.122;2023-06-14T15:18:57;29.63;26.27
78212;SHT31;67490;52.086;5.122;2023-06-14T15:21:41;29.76;26.13
78212;SHT31;67490;52.086;5.122;2023-06-14T15:24:26;29.82;26.09
78212;SHT31;67490;52.086;5.122;2023-06-14T15:27:12;29.85;25.71
78212;SHT31;67490;52.086;5.122;2023-06-14T15:29:57;29.90;25.95
78212;SHT31;67490;52.086;5.122;2023-06-14T15:32:42;29.98;26.69
78212;SHT31;67490;52.086;5.122;2023-06-14T15:35:27;29.85;26.36
78212;SHT31;67490;52.086;5.122;2023-06-14T15:38:11;29.83;26.56
78212;SHT31;67490;52.086;5.122;2023-06-14T15:40:56;29.89;26.07
78212;SHT31;67490;52.086;5.122;2023-06-14T15:43:40;29.73;25.92
78212;SHT31;67490;52.086;5.122;2023-06-14T15:46:26;29.73;26.04
78212;SHT31;67490;52.086;5.122;2023-06-14T15:49:12;29.75;25.18
78212;SHT31;67490;52.086;5.122;2023-06-14T15:51:57;29.42;25.65
78212;SHT31;67490;52.086;5.122;2023-06-14T15:54:41;29.42;25.84
78212;SHT31;67490;52.086;5.122;2023-06-14T15:57:26;29.48;25.99
78212;SHT31;67490;52.086;5.122;2023-06-14T16:00:11;29.42;25.48
78212;SHT31;67490;52.086;5.122;2023-06-14T16:02:58;29.31;25.17
78212;SHT31;67490;52.086;5.122;2023-06-14T16:05:42;29.07;26.12
78212;SHT31;67490;52.086;5.122;2023-06-14T16:08:27;29.04;25.90
78212;SHT31;67490;52.086;5.122;2023-06-14T16:11:12;29.18;26.79
78212;SHT31;67490;52.086;5.122;2023-06-14T16:13:56;29.34;26.61
78212;SHT31;67490;52.086;5.122;2023-06-14T16:16:41;29.34;26.34
78212;SHT31;67490;52.086;5.122;2023-06-14T16:19:27;29.35;25.97
78212;SHT31;67490;52.086;5.122;2023-06-14T16:22:11;29.31;26.15
78212;SHT31;67490;52.086;5.122;2023-06-14T16:24:56;29.39;26.65
78212;SHT31;67490;52.086;5.122;2023-06-14T16:27:40;29.38;26.59
78212;SHT31;67490;52.086;5.122;2023-06-14T16:30:26;29.34;27.76
78212;SHT31;67490;52.086;5.122;2023-06-14T16:33:10;29.31;27.72
78212;SHT31;67490;52.086;5.122;2023-06-14T16:35:56;29.35;27.35
78212;SHT31;67490;52.086;5.122;2023-06-14T16:38:40;29.38;27.42
78212;SHT31;67490;52.086;5.122;2023-06-14T16:41:25;29.39;27.23
78212;SHT31;67490;52.086;5.122;2023-06-14T16:44:09;29.41;27.22
78212;SHT31;67490;52.086;5.122;2023-06-14T16:46:54;29.35;26.71
78212;SHT31;67490;52.086;5.122;2023-06-14T16:49:39;29.24;26.48
78212;SHT31;67490;52.086;5.122;2023-06-14T16:52:25;29.17;27.05
78212;SHT31;67490;52.086;5.122;2023-06-14T16:55:09;29.13;27.38
78212;SHT31;67490;52.086;5.122;2023-06-14T16:57:53;29.14;27.11
78212;SHT31;67490;52.086;5.122;2023-06-14T17:00:38;29.10;27.98
78212;SHT31;67490;52.086;5.122;2023-06-14T17:03:23;29.06;27.54
78212;SHT31;67490;52.086;5.122;2023-06-14T17:06:08;29.00;27.34
78212;SHT31;67490;52.086;5.122;2023-06-14T17:08:53;28.94;27.93
78212;SHT31;67490;52.086;5.122;2023-06-14T17:11:38;28.97;27.92
78212;SHT31;67490;52.086;5.122;2023-06-14T17:14:23;28.94;28.47
78212;SHT31;67490;52.086;5.122;2023-06-14T17:17:07;28.86;28.33
78212;SHT31;67490;52.086;5.122;2023-06-14T17:19:51;28.74;27.26
78212;SHT31;67490;52.086;5.122;2023-06-14T17:22:36;28.64;27.10
78212;SHT31;67490;52.086;5.122;2023-06-14T17:25:22;28.34;26.82
78212;SHT31;67490;52.086;5.122;2023-06-14T17:28:07;28.06;28.39